Time;durP1;ratioP1;P1;durP2;ratioP2;P2;SDS_P1;SDS_P2;PMS_P1;PMS_P2;Temp;Humidity;BMP_temperature;BMP_pressure;BME280_temperature;BME280_humidity;BME280_pressure;Samples;Min_cycle;Max_cycle;Signal;HPM_P1;HPM_P2
2022/03/10 00:01:41;;;;;;;26.13;13.50;;;1.40;99.90;;;;;;5055597;28;20097;-73
2022/03/10 00:04:06;;;;;;;27.48;13.00;;;1.40;99.90;;;;;;5073461;28;20035;-73
2022/03/10 00:06:32;;;;;;;25.13;13.27;;;1.70;99.90;;;;;;5055418;28;20040;-73
2022/03/10 00:08:58;;;;;;;27.38;12.75;;;1.80;99.90;;;;;;5055398;28;20069;-72
2022/03/10 00:11:24;;;;;;;29.60;13.30;;;1.80;99.90;;;;;;5038690;28;20052;-73
2022/03/10 00:13:49;;;;;;;22.95;13.35;;;2.00;99.90;;;;;;5055658;28;20020;-73
2022/03/10 00:16:15;;;;;;;23.45;12.73;;;2.00;99.90;;;;;;5038750;28;20421;-72
2022/03/10 00:18:41;;;;;;;29.52;13.80;;;1.90;99.90;;;;;;5073240;28;20095;-72
2022/03/10 00:21:06;;;;;;;29.17;14.20;;;1.90;99.90;;;;;;5055485;28;20056;-73
2022/03/10 00:23:32;;;;;;;24.67;13.13;;;1.90;99.90;;;;;;5055234;28;20016;-72
2022/03/10 00:25:57;;;;;;;24.30;13.80;;;2.00;99.90;;;;;;5073060;28;20040;-72
2022/03/10 00:28:23;;;;;;;28.63;14.13;;;2.00;99.90;;;;;;5073149;28;20024;-73
2022/03/10 00:30:49;;;;;;;33.40;15.23;;;2.00;99.90;;;;;;5072943;28;20119;-73
2022/03/10 00:33:15;;;;;;;28.48;13.63;;;2.00;99.90;;;;;;5055225;28;20100;-73
2022/03/10 00:35:41;;;;;;;28.90;14.57;;;1.80;99.90;;;;;;5073108;28;20070;-73
2022/03/10 00:38:07;;;;;;;28.02;14.20;;;1.70;99.90;;;;;;5073097;28;20021;-73
2022/03/10 00:40:32;;;;;;;29.65;15.02;;;1.70;99.90;;;;;;5072970;28;20024;-73
2022/03/10 00:42:58;;;;;;;24.63;14.05;;;1.70;99.90;;;;;;5073011;28;20029;-73
2022/03/10 00:45:25;;;;;;;24.08;13.50;;;1.60;99.90;;;;;;5055144;28;20059;-72
2022/03/10 00:47:51;;;;;;;25.63;13.15;;;1.50;99.90;;;;;;5072982;28;20483;-73
2022/03/10 00:50:17;;;;;;;30.65;14.35;;;1.50;99.90;;;;;;5054922;28;20036;-73
2022/03/10 00:52:45;;;;;;;23.50;13.68;;;1.50;99.90;;;;;;5072911;28;20020;-73
2022/03/10 00:55:12;;;;;;;28.00;13.85;;;1.50;99.90;;;;;;5055223;28;20025;-72
2022/03/10 00:57:38;;;;;;;26.40;13.20;;;1.60;99.90;;;;;;5055243;28;20060;-73
2022/03/10 01:00:05;;;;;;;22.08;11.90;;;1.50;99.90;;;;;;5072829;28;20044;-73
2022/03/10 01:02:32;;;;;;;25.40;13.40;;;1.40;99.90;;;;;;5072848;28;20017;-72
2022/03/10 01:04:57;;;;;;;23.77;14.13;;;1.40;99.90;;;;;;5055138;28;20020;-73
2022/03/10 01:07:23;;;;;;;24.58;14.15;;;1.60;99.90;;;;;;5072791;28;20025;-72
2022/03/10 01:09:48;;;;;;;27.85;14.35;;;1.60;99.90;;;;;;5054970;28;20023;-73
2022/03/10 01:12:14;;;;;;;25.50;13.30;;;1.60;99.90;;;;;;5054706;28;20398;-73
2022/03/10 01:14:39;;;;;;;26.15;14.43;;;1.60;99.90;;;;;;5072721;28;20032;-73
2022/03/10 01:17:05;;;;;;;23.52;13.50;;;1.60;99.90;;;;;;5054857;28;20028;-73
2022/03/10 01:19:30;;;;;;;25.75;14.20;;;1.60;99.90;;;;;;5072652;28;20023;-72
2022/03/10 01:21:56;;;;;;;29.25;14.07;;;1.60;99.90;;;;;;5072669;28;20039;-73
2022/03/10 01:24:23;;;;;;;29.30;15.02;;;1.60;99.90;;;;;;5054801;28;20032;-73
2022/03/10 01:26:48;;;;;;;32.80;15.43;;;1.50;99.90;;;;;;5038109;28;20109;-72
2022/03/10 01:29:14;;;;;;;26.55;13.93;;;1.50;99.90;;;;;;5054603;28;20119;-73
2022/03/10 01:31:40;;;;;;;23.67;13.35;;;1.60;99.90;;;;;;5072278;28;20444;-72
2022/03/10 01:34:05;;;;;;;31.88;14.38;;;1.70;99.90;;;;;;5072526;28;20028;-72
2022/03/10 01:36:31;;;;;;;30.25;14.70;;;1.80;99.90;;;;;;5072493;28;20394;-73
2022/03/10 01:38:57;;;;;;;39.05;14.88;;;1.90;99.90;;;;;;5074788;28;20028;-73
2022/03/10 01:41:22;;;;;;;35.72;14.15;;;1.90;99.90;;;;;;5076148;28;20103;-73
2022/03/10 01:43:58;;;;;;;31.05;14.45;;;1.90;99.90;;;;;;5076000;28;20026;-73
2022/03/10 01:46:24;;;;;;;29.25;14.38;;;2.00;99.90;;;;;;5041385;28;20028;-73
2022/03/10 01:48:49;;;;;;;26.85;14.45;;;2.00;99.90;;;;;;5075985;28;20082;-72
2022/03/10 01:51:16;;;;;;;28.98;14.68;;;2.00;99.90;;;;;;5057853;28;20043;-72
2022/03/10 01:53:42;;;;;;;27.75;14.15;;;1.90;99.90;;;;;;5075845;28;20023;-72
2022/03/10 01:56:10;;;;;;;26.60;14.15;;;1.90;99.90;;;;;;5075890;28;20418;-73
2022/03/10 01:58:36;;;;;;;31.70;15.02;;;1.90;99.90;;;;;;5041191;28;20027;-73
2022/03/10 02:01:03;;;;;;;34.03;14.40;;;1.90;99.90;;;;;;5057757;28;20028;-73
2022/03/10 02:03:28;;;;;;;27.02;13.80;;;2.00;99.90;;;;;;5075724;28;20479;-73
2022/03/10 02:05:54;;;;;;;31.48;15.35;;;2.00;99.90;;;;;;5075714;28;20070;-72
2022/03/10 02:11:06;;;;;;;30.98;14.40;;;1.90;99.90;;;;;;5060367;28;20070;-72
2022/03/10 02:13:32;;;;;;;32.67;14.73;;;1.80;99.90;;;;;;5075496;28;20399;-73
2022/03/10 02:18:43;;;;;;;27.95;15.05;;;1.70;99.90;;;;;;5075211;28;20021;-72
2022/03/10 02:21:08;;;;;;;34.08;15.63;;;1.60;99.90;;;;;;5040808;28;20032;-72
2022/03/10 02:23:34;;;;;;;33.05;15.77;;;1.70;99.90;;;;;;5057430;28;20028;-73
2022/03/10 02:25:59;;;;;;;27.77;14.98;;;1.70;99.90;;;;;;5057457;28;20025;-73
2022/03/10 02:28:27;;;;;;;33.13;15.35;;;1.70;99.90;;;;;;5057404;28;20078;-73
2022/03/10 02:30:53;;;;;;;27.08;14.57;;;1.80;99.90;;;;;;5040472;28;20047;-73
2022/03/10 02:33:19;;;;;;;34.78;16.25;;;1.70;99.90;;;;;;5057248;28;20033;-72
2022/03/10 02:35:45;;;;;;;33.78;16.20;;;1.70;99.90;;;;;;5057128;28;20017;-73
2022/03/10 02:38:17;;;;;;;28.98;15.73;;;1.70;99.90;;;;;;5057109;28;20078;-72
2022/03/10 02:40:44;;;;;;;37.80;17.33;;;1.70;99.90;;;;;;5075004;28;20154;-72
2022/03/10 02:43:10;;;;;;;28.42;16.33;;;1.60;99.90;;;;;;5074935;28;20471;-73
2022/03/10 02:45:35;;;;;;;31.92;15.55;;;1.50;99.90;;;;;;5074859;28;20032;-72
2022/03/10 02:48:01;;;;;;;34.10;17.13;;;1.50;99.90;;;;;;5056840;28;20029;-72
2022/03/10 02:50:26;;;;;;;30.77;16.33;;;1.50;99.90;;;;;;5074608;28;20075;-73
2022/03/10 02:52:52;;;;;;;32.47;15.38;;;1.50;99.90;;;;;;5074738;28;20020;-72
2022/03/10 02:55:17;;;;;;;31.75;15.80;;;1.50;99.90;;;;;;5074676;28;20386;-73
2022/03/10 02:57:43;;;;;;;31.83;16.05;;;1.40;99.90;;;;;;5056770;28;20490;-73
2022/03/10 03:00:09;;;;;;;35.25;16.88;;;1.40;99.90;;;;;;5074533;28;20504;-73
2022/03/10 03:02:35;;;;;;;26.58;14.88;;;1.40;99.90;;;;;;5039953;28;20017;-72
2022/03/10 03:05:01;;;;;;;30.20;16.38;;;1.40;99.90;;;;;;5056675;28;20048;-73
2022/03/10 03:07:26;;;;;;;29.25;15.65;;;1.40;99.90;;;;;;5074465;28;20498;-72
2022/03/10 03:09:52;;;;;;;31.00;15.50;;;1.40;99.90;;;;;;5074464;28;20475;-73
2022/03/10 03:12:17;;;;;;;31.67;15.77;;;1.30;99.90;;;;;;5039856;28;20058;-73
2022/03/10 03:14:43;;;;;;;32.08;16.67;;;1.30;99.90;;;;;;5074244;28;20024;-72
2022/03/10 03:17:09;;;;;;;36.08;16.20;;;1.30;99.90;;;;;;5056408;28;20044;-73
2022/03/10 03:19:34;;;;;;;29.88;15.85;;;1.30;99.90;;;;;;5056662;28;20024;-73
2022/03/10 03:22:00;;;;;;;31.33;16.00;;;1.30;99.90;;;;;;5074184;28;20032;-73
2022/03/10 03:24:25;;;;;;;29.27;15.55;;;1.20;99.90;;;;;;5039514;28;20029;-73
2022/03/10 03:26:51;;;;;;;32.38;15.70;;;1.20;99.90;;;;;;5056106;28;20020;-73
2022/03/10 03:29:17;;;;;;;31.60;15.65;;;1.20;99.90;;;;;;5039504;28;20478;-73
2022/03/10 03:31:42;;;;;;;29.10;15.30;;;1.20;99.90;;;;;;5073654;28;20402;-73
2022/03/10 03:34:11;;;;;;;32.28;15.88;;;1.10;99.90;;;;;;5055954;28;20397;-73
2022/03/10 03:36:38;;;;;;;30.75;15.68;;;1.20;99.90;;;;;;5056603;28;20024;-73
2022/03/10 03:39:04;;;;;;;30.58;15.48;;;1.20;99.90;;;;;;5055868;28;20552;-73
2022/03/10 03:41:30;;;;;;;35.75;16.50;;;1.10;99.90;;;;;;5073753;28;20034;-72
2022/03/10 03:43:55;;;;;;;28.27;16.70;;;1.10;99.90;;;;;;5073766;28;20441;-73
2022/03/10 03:46:21;;;;;;;39.92;17.30;;;1.10;99.90;;;;;;5073773;28;20563;-73
2022/03/10 03:48:47;;;;;;;32.83;16.02;;;1.10;99.90;;;;;;5073659;28;20112;-73
2022/03/10 03:51:12;;;;;;;30.52;15.48;;;1.00;99.90;;;;;;5055857;28;20047;-73
2022/03/10 03:53:38;;;;;;;29.55;16.02;;;1.00;99.90;;;;;;5039036;28;20017;-72
2022/03/10 03:56:03;;;;;;;31.20;16.65;;;1.10;99.90;;;;;;5038941;28;20016;-72
2022/03/10 03:58:29;;;;;;;30.50;15.82;;;1.10;99.90;;;;;;5073514;28;20025;-73
2022/03/10 04:00:54;;;;;;;28.05;15.85;;;1.20;99.90;;;;;;5038725;28;20028;-73
2022/03/10 04:03:20;;;;;;;28.65;14.93;;;1.20;99.90;;;;;;5055588;28;20039;-73
2022/03/10 04:05:46;;;;;;;27.15;15.73;;;1.30;99.90;;;;;;5073441;28;20394;-73
2022/03/10 04:08:11;;;;;;;26.25;16.05;;;1.20;99.90;;;;;;5073437;28;20020;-73
2022/03/10 04:10:38;;;;;;;31.05;15.43;;;1.20;99.90;;;;;;5055409;28;20086;-73
2022/03/10 04:13:05;;;;;;;28.95;15.60;;;1.00;99.90;;;;;;5055415;28;20020;-73
2022/03/10 04:15:31;;;;;;;32.65;16.10;;;0.90;99.90;;;;;;5073241;28;20024;-73
2022/03/10 04:17:56;;;;;;;28.50;15.57;;;0.80;99.90;;;;;;5073320;28;20039;-73
2022/03/10 04:20:22;;;;;;;31.88;16.30;;;0.80;99.90;;;;;;5073321;28;20028;-73
2022/03/10 04:22:47;;;;;;;29.08;15.65;;;0.90;99.90;;;;;;5055255;28;20505;-73
2022/03/10 04:25:13;;;;;;;26.95;15.82;;;1.00;99.90;;;;;;5073177;28;20052;-72
2022/03/10 04:27:40;;;;;;;24.67;14.43;;;0.90;99.90;;;;;;5055162;28;20455;-72
2022/03/10 04:30:05;;;;;;;32.45;16.40;;;0.80;99.90;;;;;;5054967;28;20078;-73
2022/03/10 04:32:44;;;;;;;27.90;15.32;;;0.70;99.90;;;;;;5038405;28;20478;-72
2022/03/10 04:35:12;;;;;;;26.98;15.38;;;0.70;99.90;;;;;;5073076;28;20024;-72
2022/03/10 04:37:38;;;;;;;30.25;15.85;;;0.50;99.90;;;;;;5073115;28;20103;-73
2022/03/10 04:40:06;;;;;;;31.30;16.60;;;0.50;99.90;;;;;;5073066;28;20104;-72
2022/03/10 04:42:35;;;;;;;29.23;15.73;;;0.50;99.90;;;;;;5072971;28;20028;-72
2022/03/10 04:45:01;;;;;;;36.15;17.38;;;;;;;;;;5039141;28;20032;-72
2022/03/10 04:47:27;;;;;;;36.13;17.48;;;;;;;;;;5054865;28;20021;-71
2022/03/10 04:49:53;;;;;;;37.28;17.52;;;;;;;;;;5038435;28;20505;-72
2022/03/10 04:52:19;;;;;;;31.98;16.73;;;;;;;;;;5072793;28;20028;-72
2022/03/10 04:54:45;;;;;;;32.75;17.35;;;;;;;;;;5055151;28;20509;-72
2022/03/10 04:57:11;;;;;;;35.20;17.23;;;;;;;;;;5055091;28;20052;-72
2022/03/10 04:59:37;;;;;;;32.75;17.20;;;;;;;;;;5072862;28;20020;-72
2022/03/10 05:02:03;;;;;;;30.83;16.67;;;;;;;;;;5072806;28;20032;-71
2022/03/10 05:04:29;;;;;;;32.60;18.17;;;;;;;;;;5072803;28;20024;-72
2022/03/10 05:06:55;;;;;;;31.25;17.23;;;;;;;;;;5054758;28;20036;-72
2022/03/10 05:09:21;;;;;;;34.35;17.25;;;;;;;;;;5072734;28;20079;-72
2022/03/10 05:11:47;;;;;;;28.80;16.27;;;;;;;;;;5054717;28;20075;-72
2022/03/10 05:14:13;;;;;;;34.95;17.83;;;;;;;;;;5075500;28;20029;-72
2022/03/10 05:16:39;;;;;;;34.15;17.23;;;;;;;;;;5076591;28;20025;-72
2022/03/10 05:19:05;;;;;;;35.35;17.27;;;;;;;;;;5076465;28;20028;-72
2022/03/10 05:21:31;;;;;;;36.17;18.15;;;;;;;;;;5076453;28;20032;-72
2022/03/10 05:23:56;;;;;;;35.80;18.48;;;;;;;;;;5058650;28;20521;-72
2022/03/10 05:26:22;;;;;;;34.13;17.73;;;;;;;;;;5076439;28;20068;-72
2022/03/10 05:28:48;;;;;;;39.13;18.70;;;;;;;;;;5076350;28;20025;-72
2022/03/10 05:31:14;;;;;;;41.40;18.70;;;;;;;;;;5058103;28;20509;-72
2022/03/10 05:33:40;;;;;;;34.95;18.45;;;;;;;;;;5058604;28;20062;-71
2022/03/10 05:36:06;;;;;;;34.35;17.48;;;;;;;;;;5076154;28;20390;-72
2022/03/10 05:38:32;;;;;;;33.53;18.42;;;;;;;;;;5076247;28;20033;-72
2022/03/10 05:41:00;;;;;;;37.67;17.38;;;;;;;;;;5076210;28;20028;-72
2022/03/10 05:43:25;;;;;;;35.97;18.67;;;;;;;;;;5076271;28;20046;-72
2022/03/10 05:45:52;;;;;;;44.78;20.23;;;;;;;;;;5076073;28;20047;-72
2022/03/10 05:48:18;;;;;;;34.80;18.88;;;;;;;;;;5075969;28;20032;-72
2022/03/10 05:50:44;;;;;;;41.58;19.95;;;;;;;;;;5075919;28;20077;-72
2022/03/10 05:53:10;;;;;;;34.88;17.40;;;;;;;;;;5057855;28;20024;-72
2022/03/10 05:55:36;;;;;;;36.55;18.38;;;;;;;;;;5058206;28;20474;-72
2022/03/10 05:58:02;;;;;;;39.40;19.70;;;;;;;;;;5075825;28;20025;-72
2022/03/10 06:00:28;;;;;;;38.33;18.55;;;;;;;;;;5075824;28;20032;-72
2022/03/10 06:02:54;;;;;;;37.67;20.17;;;;;;;;;;5041335;28;20067;-72
2022/03/10 06:05:19;;;;;;;37.40;18.35;;;;;;;;;;5075621;28;20032;-73
2022/03/10 06:07:45;;;;;;;40.05;18.95;;;;;;;;;;5057627;28;20138;-73
2022/03/10 06:10:11;;;;;;;41.55;18.38;;;;;;;;;;5075406;28;20154;-73
2022/03/10 06:12:37;;;;;;;37.33;18.83;;;;;;;;;;5075490;28;20017;-73
2022/03/10 06:15:04;;;;;;;37.30;19.08;;;;;;;;;;5057526;28;20025;-73
2022/03/10 06:17:30;;;;;;;38.67;18.98;;;;;;;;;;5057486;28;20025;-72
2022/03/10 06:19:57;;;;;;;34.53;17.73;;;;;;;;;;5075386;28;20039;-73
2022/03/10 06:22:25;;;;;;;38.40;18.83;;;;;;;;;;5057482;28;20025;-73
2022/03/10 06:24:51;;;;;;;36.03;17.70;;;;;;;;;;5074897;28;20486;-72
2022/03/10 06:27:17;;;;;;;36.03;19.55;;;;;;;;;;5057504;28;20028;-72
2022/03/10 06:29:43;;;;;;;41.28;18.35;;;;;;;;;;5075137;28;20404;-72
2022/03/10 06:32:12;;;;;;;33.60;18.02;;;;;;;;;;5074878;28;20055;-72
2022/03/10 06:34:38;;;;;;;38.38;17.92;;;;;;;;;;5075157;28;20048;-72
2022/03/10 06:37:05;;;;;;;33.22;17.02;;;;;;;;;;5075081;28;20021;-72
2022/03/10 06:39:31;;;;;;;39.10;17.70;;;;;;;;;;5057306;28;20075;-72
2022/03/10 06:41:57;;;;;;;30.13;16.98;;;;;;;;;;5057033;28;20029;-72
2022/03/10 06:44:23;;;;;;;40.40;17.25;;;5.00;99.90;;;;;;5074957;28;20028;-73
2022/03/10 06:46:49;;;;;;;28.63;16.70;;;5.30;99.90;;;;;;5074849;28;20391;-73
2022/03/10 06:49:14;;;;;;;30.83;15.52;;;6.50;99.90;;;;;;5056781;28;20031;-73
2022/03/10 06:51:40;;;;;;;27.88;15.45;;;7.50;99.90;;;;;;5074660;28;20164;-73
2022/03/10 06:54:05;;;;;;;30.98;16.73;;;8.20;99.70;;;;;;5040314;28;20138;-73
2022/03/10 06:56:31;;;;;;;32.10;16.55;;;8.70;97.70;;;;;;5039973;28;20020;-73
2022/03/10 06:58:57;;;;;;;30.27;16.45;;;9.00;95.50;;;;;;5074633;28;20028;-73
2022/03/10 07:01:22;;;;;;;26.65;15.95;;;9.60;94.00;;;;;;5040081;28;20025;-73
2022/03/10 07:03:48;;;;;;;31.30;16.67;;;10.20;91.00;;;;;;5056575;28;20024;-73
2022/03/10 07:06:13;;;;;;;25.52;15.38;;;9.80;90.30;;;;;;5074467;28;20536;-73
2022/03/10 07:08:39;;;;;;;29.23;16.77;;;9.70;90.30;;;;;;5056518;28;20024;-73
2022/03/10 07:11:05;;;;;;;27.38;16.60;;;10.00;88.90;;;;;;5039596;28;20024;-73
2022/03/10 07:13:30;;;;;;;22.92;15.20;;;10.10;85.00;;;;;;5056502;28;20020;-73
2022/03/10 07:15:56;;;;;;;28.73;16.85;;;10.10;87.00;;;;;;5073562;28;20153;-73
2022/03/10 07:18:21;;;;;;;28.10;17.58;;;10.50;83.90;;;;;;5055488;28;20052;-74
2022/03/10 07:20:48;;;;;;;29.10;16.42;;;11.10;81.70;;;;;;5073684;28;20094;-73
2022/03/10 07:23:13;;;;;;;28.48;16.83;;;11.60;75.90;;;;;;5073176;28;20128;-74
2022/03/10 07:25:41;;;;;;;25.17;16.65;;;11.00;78.40;;;;;;5073633;28;20150;-74
2022/03/10 07:28:07;;;;;;;24.52;16.63;;;11.60;75.50;;;;;;5073758;28;20024;-74
2022/03/10 07:30:33;;;;;;;31.90;17.50;;;12.30;73.00;;;;;;5055821;28;20410;-73
2022/03/10 07:32:58;;;;;;;27.65;16.83;;;11.90;73.80;;;;;;5055694;28;20074;-74
2022/03/10 07:35:24;;;;;;;26.08;16.60;;;12.20;73.50;;;;;;5055083;28;20611;-74
2022/03/10 07:37:51;;;;;;;24.77;15.38;;;12.60;69.00;;;;;;5073242;28;20390;-73
2022/03/10 07:40:17;;;;;;;29.50;15.70;;;12.60;67.20;;;;;;5073454;28;20445;-74
2022/03/10 07:42:42;;;;;;;25.45;15.60;;;13.00;66.20;;;;;;5073738;28;20052;-74
2022/03/10 07:45:09;;;;;;;26.55;15.98;;;13.30;64.00;;;;;;5035032;28;20116;-74
2022/03/10 07:47:34;;;;;;;26.98;16.85;;;13.40;63.10;;;;;;5035883;28;20120;-73
2022/03/10 07:50:00;;;;;;;23.08;15.32;;;13.10;61.50;;;;;;5051196;28;20541;-73
2022/03/10 07:52:25;;;;;;;22.92;14.93;;;13.00;62.50;;;;;;5072026;28;20119;-74
2022/03/10 07:54:51;;;;;;;25.40;14.73;;;13.50;61.80;;;;;;5075045;28;20429;-73
2022/03/10 07:57:16;;;;;;;23.23;15.50;;;13.60;60.30;;;;;;5022049;28;20017;-73
2022/03/10 07:59:42;;;;;;;28.05;15.38;;;13.30;59.70;;;;;;5072627;28;20063;-73
2022/03/10 08:02:07;;;;;;;25.10;15.18;;;13.50;59.90;;;;;;5074220;28;20035;-73
2022/03/10 08:04:33;;;;;;;24.70;15.43;;;13.90;59.10;;;;;;5074574;28;20390;-73
2022/03/10 08:06:58;;;;;;;24.95;15.13;;;13.90;58.90;;;;;;5054899;28;20127;-73
2022/03/10 08:09:24;;;;;;;26.50;15.07;;;14.80;58.00;;;;;;5050690;28;20540;-73
2022/03/10 08:11:49;;;;;;;26.42;14.40;;;14.60;58.20;;;;;;5073058;28;20040;-74
2022/03/10 08:14:15;;;;;;;24.35;15.40;;;14.20;57.70;;;;;;5055029;28;20382;-73
2022/03/10 08:16:40;;;;;;;24.70;14.82;;;14.00;56.70;;;;;;5050643;28;20028;-75
2022/03/10 08:19:09;;;;;;;26.35;15.32;;;13.90;59.20;;;;;;5061686;28;20028;-75
2022/03/10 08:21:34;;;;;;;21.95;15.07;;;14.40;58.20;;;;;;5073194;28;20149;-75
2022/03/10 08:24:00;;;;;;;22.70;15.43;;;14.90;58.40;;;;;;5072784;28;20045;-74
2022/03/10 08:26:26;;;;;;;23.02;15.35;;;15.20;56.20;;;;;;5055377;28;20025;-75
2022/03/10 08:28:53;;;;;;;22.92;14.50;;;15.30;56.20;;;;;;5078287;28;20177;-75
2022/03/10 08:31:19;;;;;;;23.35;14.77;;;15.30;56.00;;;;;;5054080;28;20169;-75
2022/03/10 08:33:45;;;;;;;25.65;15.18;;;15.50;55.90;;;;;;5072245;28;20019;-75
2022/03/10 08:36:11;;;;;;;22.98;14.68;;;15.20;54.60;;;;;;5038458;28;20025;-75
2022/03/10 08:38:37;;;;;;;26.95;15.30;;;14.90;55.10;;;;;;5054747;28;20023;-75
2022/03/10 08:41:02;;;;;;;20.38;14.60;;;15.00;57.30;;;;;;5069658;28;20028;-75
2022/03/10 08:43:29;;;;;;;22.15;15.25;;;14.70;56.70;;;;;;5054963;28;20040;-75
2022/03/10 08:45:55;;;;;;;20.67;14.15;;;14.80;56.20;;;;;;5072701;28;20021;-75
2022/03/10 08:48:21;;;;;;;20.75;14.15;;;15.10;55.70;;;;;;5076306;28;20048;-75
2022/03/10 08:50:47;;;;;;;29.02;15.52;;;15.40;54.20;;;;;;5058851;28;20033;-75
2022/03/10 08:53:13;;;;;;;25.58;15.57;;;16.00;55.40;;;;;;5058792;28;20027;-75
2022/03/10 08:55:38;;;;;;;25.40;15.43;;;16.10;53.60;;;;;;5026014;28;20016;-75
2022/03/10 08:58:04;;;;;;;23.50;15.57;;;16.40;54.30;;;;;;5039247;28;20032;-75
2022/03/10 09:00:29;;;;;;;23.08;15.20;;;16.60;52.80;;;;;;5039959;28;20490;-75
2022/03/10 09:02:57;;;;;;;28.90;14.55;;;16.70;53.20;;;;;;5056718;28;20067;-76
2022/03/10 09:05:22;;;;;;;20.48;14.57;;;17.20;52.30;;;;;;5078227;28;20468;-75
2022/03/10 09:07:48;;;;;;;26.20;14.63;;;16.70;53.00;;;;;;5077538;28;20016;-75
2022/03/10 09:10:13;;;;;;;23.80;14.95;;;17.10;51.00;;;;;;5077864;28;20078;-76
2022/03/10 09:12:40;;;;;;;22.70;14.27;;;17.00;51.70;;;;;;5060235;28;20470;-76
2022/03/10 09:15:07;;;;;;;19.52;14.43;;;17.50;51.00;;;;;;5078966;28;20017;-76
2022/03/10 09:17:33;;;;;;;19.80;14.02;;;17.30;50.90;;;;;;5078539;28;20021;-76
2022/03/10 09:19:59;;;;;;;26.52;14.25;;;17.40;48.60;;;;;;5080349;28;20021;-76
2022/03/10 09:22:25;;;;;;;23.23;14.20;;;17.40;49.90;;;;;;5063316;28;20115;-75
2022/03/10 09:24:52;;;;;;;21.08;14.40;;;17.80;48.90;;;;;;5047272;28;20025;-76
2022/03/10 09:27:18;;;;;;;24.75;14.35;;;17.80;49.10;;;;;;5079801;28;20025;-76
2022/03/10 09:29:44;;;;;;;23.75;15.23;;;18.40;46.90;;;;;;5061373;28;20482;-76
2022/03/10 09:32:10;;;;;;;23.08;15.05;;;18.70;46.50;;;;;;5078392;28;20102;-76
2022/03/10 09:34:35;;;;;;;22.13;14.23;;;18.70;45.50;;;;;;5078461;28;20029;-76
2022/03/10 09:37:01;;;;;;;26.52;16.02;;;18.30;46.00;;;;;;5060752;28;20028;-76
2022/03/10 09:39:27;;;;;;;24.80;14.68;;;18.10;46.70;;;;;;5060685;28;20024;-75
2022/03/10 09:41:55;;;;;;;20.77;14.10;;;18.50;46.50;;;;;;5077684;28;20402;-76
2022/03/10 09:44:21;;;;;;;22.50;14.38;;;18.40;45.90;;;;;;5063756;28;20020;-76
2022/03/10 09:46:50;;;;;;;22.90;14.82;;;18.40;45.20;;;;;;5061440;28;20108;-76
2022/03/10 09:49:19;;;;;;;24.45;14.60;;;18.60;44.60;;;;;;5081170;28;20509;-76
2022/03/10 09:51:45;;;;;;;19.60;14.25;;;18.90;46.00;;;;;;5062581;28;20020;-76
2022/03/10 09:54:11;;;;;;;18.00;13.45;;;18.90;44.90;;;;;;5080026;28;20025;-76
2022/03/10 09:56:38;;;;;;;19.90;14.13;;;19.00;44.20;;;;;;5080806;28;20459;-76
2022/03/10 09:59:07;;;;;;;24.50;15.00;;;18.60;44.70;;;;;;5042303;28;20017;-76
2022/03/10 10:01:33;;;;;;;22.60;13.82;;;18.80;45.20;;;;;;5059818;28;20032;-76
2022/03/10 10:03:58;;;;;;;25.20;14.82;;;19.40;42.90;;;;;;5057017;28;20033;-77
2022/03/10 10:06:24;;;;;;;19.95;13.55;;;20.10;42.40;;;;;;5063862;28;20029;-76
2022/03/10 10:08:57;;;;;;;20.17;13.60;;;19.50;41.70;;;;;;5063294;28;20078;-77
2022/03/10 10:11:32;;;;;;;19.95;13.55;;;18.60;42.60;;;;;;5062356;28;20386;-76
2022/03/10 10:13:57;;;;;;;18.63;13.82;;;19.20;42.10;;;;;;5077417;28;20108;-76
2022/03/10 10:16:23;;;;;;;16.35;12.05;;;19.60;41.10;;;;;;5076827;28;20059;-76
2022/03/10 10:18:55;;;;;;;23.23;13.13;;;19.40;39.00;;;;;;5056994;28;20024;-77
2022/03/10 10:21:22;;;;;;;20.45;12.63;;;19.30;40.50;;;;;;5075049;28;20092;-76
2022/03/10 10:23:48;;;;;;;18.90;12.30;;;19.60;39.10;;;;;;5075111;28;20021;-77
2022/03/10 10:26:14;;;;;;;20.50;12.70;;;19.00;38.20;;;;;;5075014;28;20497;-77
2022/03/10 10:28:42;;;;;;;22.45;12.88;;;19.20;39.90;;;;;;5074784;28;20033;-77
2022/03/10 10:31:17;;;;;;;21.25;12.85;;;19.40;40.00;;;;;;5074555;28;20048;-77
2022/03/10 10:33:56;;;;;;;19.52;13.38;;;19.30;40.50;;;;;;5074609;28;20044;-77
2022/03/10 10:36:24;;;;;;;17.63;12.90;;;19.30;40.80;;;;;;5074404;28;20020;-77
2022/03/10 10:38:52;;;;;;;18.25;13.57;;;19.80;39.30;;;;;;5057384;28;20470;-77
2022/03/10 10:41:25;;;;;;;14.45;11.80;;;20.20;38.70;;;;;;5074392;28;20414;-77
2022/03/10 10:43:54;;;;;;;16.42;12.38;;;20.50;37.50;;;;;;5074487;28;20200;-77
2022/03/10 10:46:23;;;;;;;21.20;13.73;;;20.40;37.30;;;;;;5074489;28;20024;-77
2022/03/10 10:48:49;;;;;;;17.83;12.77;;;20.20;39.00;;;;;;5056487;28;20505;-77
2022/03/10 10:51:25;;;;;;;18.58;13.10;;;19.80;38.70;;;;;;5058104;28;20028;-76
2022/03/10 10:53:50;;;;;;;19.30;11.30;;;19.50;40.00;;;;;;5058885;28;20063;-76
2022/03/10 10:56:16;;;;;;;21.23;12.63;;;19.30;38.80;;;;;;5033188;28;20024;-77
2022/03/10 10:58:45;;;;;;;15.85;11.15;;;19.20;41.30;;;;;;5043160;28;20028;-77
2022/03/10 11:01:29;;;;;;;14.68;10.02;;;19.20;40.00;;;;;;5023367;28;20031;-76
2022/03/10 11:03:55;;;;;;;19.88;12.43;;;19.10;40.10;;;;;;5060277;28;20552;-76
2022/03/10 11:06:21;;;;;;;19.50;11.85;;;19.00;41.30;;;;;;5077323;28;20040;-76
2022/03/10 11:08:47;;;;;;;17.48;12.45;;;19.20;42.10;;;;;;5059177;28;20127;-76
2022/03/10 11:11:15;;;;;;;21.33;13.10;;;19.20;41.50;;;;;;5074742;28;20076;-76
2022/03/10 11:13:41;;;;;;;15.23;11.63;;;19.30;41.90;;;;;;5076251;28;20603;-76
2022/03/10 11:16:08;;;;;;;19.80;11.80;;;19.50;41.10;;;;;;5076696;28;20039;-76
2022/03/10 11:18:33;;;;;;;16.55;11.35;;;19.10;41.20;;;;;;5056754;28;20047;-76
2022/03/10 11:21:11;;;;;;;15.60;11.02;;;19.80;41.10;;;;;;5058933;28;20032;-76
2022/03/10 11:24:07;;;;;;;17.80;10.63;;;19.80;40.30;;;;;;5057760;28;20056;-76
2022/03/10 11:26:43;;;;;;;14.75;10.68;;;19.80;40.40;;;;;;5074131;28;20028;-76
2022/03/10 11:29:09;;;;;;;13.20;10.20;;;19.80;40.40;;;;;;5037485;28;20017;-76
2022/03/10 11:31:35;;;;;;;13.40;9.23;;;19.30;39.30;;;;;;5066900;28;20044;-75
2022/03/10 11:34:01;;;;;;;14.65;10.23;;;18.80;39.90;;;;;;5057434;28;20036;-76
2022/03/10 11:36:30;;;;;;;15.80;10.45;;;18.20;40.70;;;;;;5074484;28;20040;-75
2022/03/10 11:39:04;;;;;;;14.07;9.55;;;18.00;43.30;;;;;;5039443;28;20028;-76
2022/03/10 11:41:47;;;;;;;12.52;9.50;;;18.00;42.70;;;;;;5055086;28;20027;-76
2022/03/10 11:44:18;;;;;;;14.75;9.52;;;17.60;43.00;;;;;;5055339;28;20029;-75
2022/03/10 11:46:52;;;;;;;19.80;10.18;;;18.00;43.40;;;;;;5047560;28;20409;-75
2022/03/10 11:49:17;;;;;;;13.50;9.10;;;17.80;43.30;;;;;;5055419;28;20029;-75
2022/03/10 11:52:00;;;;;;;15.77;9.02;;;17.80;44.30;;;;;;5073152;28;20529;-75
2022/03/10 11:54:28;;;;;;;15.25;9.60;;;17.50;43.70;;;;;;5073507;28;20017;-76
2022/03/10 11:59:44;;;;;;;12.65;9.18;;;17.30;43.00;;;;;;5110844;27;20322;-74
2022/03/10 12:02:43;;;;;;;16.92;10.05;;;17.10;43.30;;;;;;5089636;28;20016;-74
2022/03/10 12:05:11;;;;;;;11.68;8.65;;;17.40;43.70;;;;;;5109316;28;20012;-74
2022/03/10 12:07:40;;;;;;;14.05;8.80;;;17.70;43.00;;;;;;5090206;28;20402;-74
2022/03/10 12:10:09;;;;;;;11.95;9.05;;;17.80;44.00;;;;;;5114994;28;20072;-74
2022/03/10 12:12:37;;;;;;;11.93;7.95;;;17.60;43.50;;;;;;5130063;28;20027;-74
2022/03/10 12:18:23;;;;;;;11.02;7.85;;;17.60;43.10;;;;;;5069788;28;20653;-75
2022/03/10 12:20:53;;;;;;;12.02;7.78;;;17.60;42.50;;;;;;5036126;28;20076;-75
2022/03/10 12:23:22;;;;;;;9.98;6.18;;;17.80;43.20;;;;;;5037464;28;20441;-75
2022/03/10 12:25:53;;;;;;;10.88;6.68;;;17.10;41.10;;;;;;5038817;28;20032;-76
2022/03/10 12:28:31;;;;;;;11.05;6.28;;;17.40;41.80;;;;;;5048637;28;20048;-75
2022/03/10 12:31:06;;;;;;;11.07;6.43;;;17.20;42.20;;;;;;5049620;28;20033;-74
2022/03/10 12:33:33;;;;;;;13.13;6.95;;;17.30;41.90;;;;;;5049914;28;20127;-75
2022/03/10 12:36:00;;;;;;;10.63;6.15;;;17.60;41.80;;;;;;5049409;28;20072;-75
2022/03/10 12:38:44;;;;;;;9.63;6.53;;;17.00;40.70;;;;;;5049745;28;20052;-75
2022/03/10 12:41:10;;;;;;;9.73;6.53;;;17.00;42.00;;;;;;5048603;28;20022;-75
2022/03/10 12:43:36;;;;;;;7.22;5.65;;;16.90;40.90;;;;;;5049433;28;20017;-75
2022/03/10 12:46:03;;;;;;;10.98;5.88;;;16.80;40.60;;;;;;5049070;28;20033;-75
2022/03/10 12:49:01;;;;;;;9.45;5.32;;;16.80;39.90;;;;;;5049354;28;20033;-75
2022/03/10 12:51:30;;;;;;;7.38;5.55;;;16.70;40.20;;;;;;5045037;28;20040;-75
2022/03/10 12:53:58;;;;;;;10.57;5.93;;;16.80;40.80;;;;;;5049671;28;20369;-75
2022/03/10 12:56:23;;;;;;;8.05;5.82;;;16.90;40.00;;;;;;5048967;28;20036;-74
2022/03/10 12:58:51;;;;;;;7.32;5.22;;;16.80;39.80;;;;;;5036264;28;20021;-75